Sturgeon Bay, WI

7:33 PM CDT en Julio 28, 2014 (GMT -0500)
Leif Everson Observatory (KWISTURG1) Alt 636 ft | 44.83 °N, 87.34 °W | Change Station

Current weather conditions updated 51 seconds ago

Clear
Despejado
61.0 ° F
Sensación térmica 61.0 ° F
N
0.0
Viento Variable Viento desde Sur
Gusts 0.0 mph

Mañana se prevé un día Más cálido que hoy. Formación de tormentas por la tarde..

Hoy
Alta -- | Baja -- ° F
--% Posibilidad de precipitaciones
Ayer
Alta -- | Baja -- ° F
Precip. -- pul
5:30 AM 8:20 PM
Creciente, 4% visible
Presión 30.04 pul
Visibilidad 10.0 Millas
Nubes Despejado
Punto de rocío 52 ° F
Humedad 73%
Precipitaciones 0.00 pul
Espesor de la nieve No disponible.
UV 0.0 de una escala de 12
Polen 7.90 de una escala de 12
Calidad del aire No disponible.
Flu Activity No disponible.
METAR KSUE 290015Z AUTO 21005KT 10SM CLR 17/09 A3004 RMK AO1

More Conditions Fewer Conditions

Presión 30.04 pul
Visibilidad 10.0 Millas
Nubes Despejado
Punto de rocío 52 ° F
Humedad 73%
Precipitaciones 0.00 pul
Espesor de la nieve No disponible.
UV 0.0 de una escala de 12
Polen 7.90 de una escala de 12
Calidad del aire No disponible.
Flu Activity No disponible.
METAR KSUE 290015Z AUTO 21005KT 10SM CLR 17/09 A3004 RMK AO1

More Conditions Fewer Conditions

10-Day Weather Forecast

Almanac

Astronomía

Jul. 28, 2014 Salida Puesta
Hora real 5:30 AM CDT 8:20 PM CDT
Crepúsculo civil 4:56 AM CDT 8:54 PM CDT
Crepúsculo náutico 4:13 AM CDT 9:37 PM CDT
Crepúsculo astronómico 3:22 AM CDT 10:28 PM CDT
Luna 7:18 AM CDT (7/28) 8:54 PM CDT (7/28)
Horas de luz 15h 57m
Horas de luz
14h 49m
Tomorrow will be 2m 16s shorter.
Creciente, 4% of the Moon is Illuminated
Hoy
Creciente
Ago 3
Cuarto creciente
Ago 10
Luna llena
Ago 17
Cuarto menguante
Ago 25
Nueva

Extremos de hoy

Máximos del estado Bajos del estado

Community

WunderPhotos

Upload Photos

1,738,562 ¡fotos cargadas!

WunderBlogs® & News

Nearby

Grosos de nieve

Estación Profundido Altura
No tenemos constancia de nieve nueva.

Actividad de terremotos

Ciudad Distance Mag. Tiempo y dato
No hay informes recientes de la actividad sísmica.
Magnitud mínima muestra es 2,5.

Temperaturas de aguas costeras

Lugar Temperatura
Sin partes meteorológicos de las estaciones

Estaciones meteorológicas cercanas

Ubicación de la estación Temp. Punto de rocío Humedad Viento Precip. Alt Actualizado Tipo
APRSWXNET Sturgeon Bay WI , Sturgeon Bay, WI 64 ° F 50 ° F 61% SE  a  0 mph 0.00 pul / hr 597 ft 6:05 PM CDT MADIS
Leif Everson Observatory, Sturgeon Bay, WI 61.0 ° F 52 ° F 73% Sur  a  0.0 mph 0.00 pul / hr 636 ft 7:32 PM CDT Normal
Egg Harbor WI, Egg Harbor, WI 63.3 ° F 58 ° F 83% Norte  a  0.0 mph 0.00 pul / hr 650 ft 7:32 PM CDT Normal
Tyco Fire Protection, Marinette, WI 66.4 ° F 60 ° F 79% OSO  a  1.0 mph 0.00 pul / hr 617 ft 7:32 PM CDT Normal

Show More Stations Show Fewer Stations